sensor_id;sensor_type;location;lat;lon;timestamp;pressure;altitude;pressure_sealevel;temperature
73662;BMP280;61956;52.540;13.382;2023-02-13T00:02:24;101090.63;;;8.41
73662;BMP280;61956;52.540;13.382;2023-02-13T00:04:53;101042.53;;;8.40
73662;BMP280;61956;52.540;13.382;2023-02-13T00:07:22;100851.44;;;8.38
73662;BMP280;61956;52.540;13.382;2023-02-13T00:09:51;100645.88;;;8.36
73662;BMP280;61956;52.540;13.382;2023-02-13T00:12:23;100499.56;;;8.35
73662;BMP280;61956;52.540;13.382;2023-02-13T00:14:53;100548.69;;;8.35
73662;BMP280;61956;52.540;13.382;2023-02-13T00:17:22;101233.03;;;8.39
73662;BMP280;61956;52.540;13.382;2023-02-13T00:19:51;100753.66;;;8.35
73662;BMP280;61956;52.540;13.382;2023-02-13T00:22:20;100406.75;;;8.33
73662;BMP280;61956;52.540;13.382;2023-02-13T00:24:49;100117.75;;;8.30
73662;BMP280;61956;52.540;13.382;2023-02-13T00:27:19;100179.78;;;8.30
73662;BMP280;61956;52.540;13.382;2023-02-13T00:29:51;100132.47;;;8.29
73662;BMP280;61956;52.540;13.382;2023-02-13T00:32:20;99952.88;;;8.27
73662;BMP280;61956;52.540;13.382;2023-02-13T00:34:49;99926.28;;;8.26
73662;BMP280;61956;52.540;13.382;2023-02-13T00:37:20;100008.94;;;8.26
73662;BMP280;61956;52.540;13.382;2023-02-13T00:39:51;100046.09;;;8.25
73662;BMP280;61956;52.540;13.382;2023-02-13T00:42:20;99891.34;;;8.24
73662;BMP280;61956;52.540;13.382;2023-02-13T00:44:53;99631.41;;;8.23
73662;BMP280;61956;52.540;13.382;2023-02-13T00:47:23;99600.66;;;8.21
73662;BMP280;61956;52.540;13.382;2023-02-13T00:49:52;99784.06;;;8.21
73662;BMP280;61956;52.540;13.382;2023-02-13T00:52:22;99653.34;;;8.20
73662;BMP280;61956;52.540;13.382;2023-02-13T00:54:51;99664.44;;;8.21
73662;BMP280;61956;52.540;13.382;2023-02-13T00:57:20;99438.41;;;8.18
73662;BMP280;61956;52.540;13.382;2023-02-13T00:59:49;99674.25;;;8.19
73662;BMP280;61956;52.540;13.382;2023-02-13T01:02:21;99370.72;;;8.16
73662;BMP280;61956;52.540;13.382;2023-02-13T01:04:50;99238.50;;;8.14
73662;BMP280;61956;52.540;13.382;2023-02-13T01:07:20;99341.00;;;8.14
73662;BMP280;61956;52.540;13.382;2023-02-13T01:09:49;99108.84;;;8.12
73662;BMP280;61956;52.540;13.382;2023-02-13T01:12:18;98939.41;;;8.11
73662;BMP280;61956;52.540;13.382;2023-02-13T01:14:47;98755.59;;;8.09
73662;BMP280;61956;52.540;13.382;2023-02-13T01:17:17;98844.41;;;8.08
73662;BMP280;61956;52.540;13.382;2023-02-13T01:19:51;99238.19;;;8.11
73662;BMP280;61956;52.540;13.382;2023-02-13T01:22:21;99096.41;;;8.09
73662;BMP280;61956;52.540;13.382;2023-02-13T01:24:50;99128.41;;;8.08
73662;BMP280;61956;52.540;13.382;2023-02-13T01:27:20;99073.41;;;8.07
73662;BMP280;61956;52.540;13.382;2023-02-13T01:29:49;98911.78;;;8.06
73662;BMP280;61956;52.540;13.382;2023-02-13T01:32:19;98556.03;;;8.03
73662;BMP280;61956;52.540;13.382;2023-02-13T01:34:51;98598.38;;;8.02
73662;BMP280;61956;52.540;13.382;2023-02-13T01:37:20;98538.25;;;8.02
73662;BMP280;61956;52.540;13.382;2023-02-13T01:39:51;98759.19;;;8.03
73662;BMP280;61956;52.540;13.382;2023-02-13T01:42:24;98657.00;;;8.02
73662;BMP280;61956;52.540;13.382;2023-02-13T01:44:56;98542.88;;;8.00
73662;BMP280;61956;52.540;13.382;2023-02-13T01:47:37;98571.28;;;8.00
73662;BMP280;61956;52.540;13.382;2023-02-13T01:50:16;98166.59;;;7.97
73662;BMP280;61956;52.540;13.382;2023-02-13T01:52:51;98235.47;;;7.96
73662;BMP280;61956;52.540;13.382;2023-02-13T01:55:25;98017.47;;;7.94
73662;BMP280;61956;52.540;13.382;2023-02-13T01:58:00;97738.28;;;7.92
73662;BMP280;61956;52.540;13.382;2023-02-13T02:00:35;97764.38;;;7.90
73662;BMP280;61956;52.540;13.382;2023-02-13T02:03:11;97962.75;;;7.92
73662;BMP280;61956;52.540;13.382;2023-02-13T02:05:50;97785.28;;;7.89
73662;BMP280;61956;52.540;13.382;2023-02-13T02:08:23;97974.41;;;7.89
73662;BMP280;61956;52.540;13.382;2023-02-13T02:10:54;97777.53;;;7.89
73662;BMP280;61956;52.540;13.382;2023-02-13T02:13:25;97252.16;;;7.84
73662;BMP280;61956;52.540;13.382;2023-02-13T02:16:01;96779.53;;;7.78
73662;BMP280;61956;52.540;13.382;2023-02-13T02:18:30;97108.28;;;7.81
73662;BMP280;61956;52.540;13.382;2023-02-13T02:21:22;97337.09;;;7.80
73662;BMP280;61956;52.540;13.382;2023-02-13T02:24:40;97185.50;;;7.77
73662;BMP280;61956;52.540;13.382;2023-02-13T02:27:45;96877.06;;;7.76
73662;BMP280;61956;52.540;13.382;2023-02-13T02:30:53;96755.41;;;7.74
73662;BMP280;61956;52.540;13.382;2023-02-13T02:33:53;96497.44;;;7.71
73662;BMP280;61956;52.540;13.382;2023-02-13T02:36:49;96822.03;;;7.72
73662;BMP280;61956;52.540;13.382;2023-02-13T02:39:41;96903.00;;;7.71
73662;BMP280;61956;52.540;13.382;2023-02-13T02:42:26;96553.72;;;7.69
73662;BMP280;61956;52.540;13.382;2023-02-13T02:45:06;96695.50;;;7.69
73662;BMP280;61956;52.540;13.382;2023-02-13T02:47:47;96916.97;;;7.70
73662;BMP280;61956;52.540;13.382;2023-02-13T02:50:41;96753.31;;;7.68
73662;BMP280;61956;52.540;13.382;2023-02-13T02:53:23;96669.25;;;7.67
73662;BMP280;61956;52.540;13.382;2023-02-13T02:56:06;96660.78;;;7.66
73662;BMP280;61956;52.540;13.382;2023-02-13T02:58:45;96882.50;;;7.66
73662;BMP280;61956;52.540;13.382;2023-02-13T03:01:37;96389.97;;;7.63
73662;BMP280;61956;52.540;13.382;2023-02-13T03:04:25;96058.09;;;7.59
73662;BMP280;61956;52.540;13.382;2023-02-13T03:07:16;96149.38;;;7.58
73662;BMP280;61956;52.540;13.382;2023-02-13T03:09:50;96787.72;;;7.63
73662;BMP280;61956;52.540;13.382;2023-02-13T03:12:40;96130.59;;;7.58
73662;BMP280;61956;52.540;13.382;2023-02-13T03:15:27;96196.06;;;7.57
73662;BMP280;61956;52.540;13.382;2023-02-13T03:17:58;96487.03;;;7.58
73662;BMP280;61956;52.540;13.382;2023-02-13T03:20:44;96303.56;;;7.56
73662;BMP280;61956;52.540;13.382;2023-02-13T03:23:40;96339.66;;;7.56
73662;BMP280;61956;52.540;13.382;2023-02-13T03:26:31;96534.78;;;7.56
73662;BMP280;61956;52.540;13.382;2023-02-13T03:29:23;96749.19;;;7.58
73662;BMP280;61956;52.540;13.382;2023-02-13T03:32:24;95978.28;;;7.51
73662;BMP280;61956;52.540;13.382;2023-02-13T03:35:06;96165.31;;;7.52
73662;BMP280;61956;52.540;13.382;2023-02-13T03:37:59;96293.13;;;7.53
73662;BMP280;61956;52.540;13.382;2023-02-13T03:40:45;96489.00;;;7.53
73662;BMP280;61956;52.540;13.382;2023-02-13T03:43:34;96751.91;;;7.53
73662;BMP280;61956;52.540;13.382;2023-02-13T03:46:09;96948.31;;;7.55
73662;BMP280;61956;52.540;13.382;2023-02-13T03:48:41;96714.00;;;7.53
73662;BMP280;61956;52.540;13.382;2023-02-13T03:51:37;96486.72;;;7.51
73662;BMP280;61956;52.540;13.382;2023-02-13T03:54:12;96636.97;;;7.52
73662;BMP280;61956;52.540;13.382;2023-02-13T03:56:49;96187.69;;;7.48
73662;BMP280;61956;52.540;13.382;2023-02-13T03:59:35;96319.84;;;7.48
73662;BMP280;61956;52.540;13.382;2023-02-13T04:02:10;96728.25;;;7.51
73662;BMP280;61956;52.540;13.382;2023-02-13T04:04:47;96850.16;;;7.51
73662;BMP280;61956;52.540;13.382;2023-02-13T04:07:23;97270.84;;;7.53
73662;BMP280;61956;52.540;13.382;2023-02-13T04:10:02;97528.09;;;7.56
73662;BMP280;61956;52.540;13.382;2023-02-13T04:12:45;97393.53;;;7.54
73662;BMP280;61956;52.540;13.382;2023-02-13T04:15:24;97192.72;;;7.53
73662;BMP280;61956;52.540;13.382;2023-02-13T04:18:06;97100.97;;;7.52
73662;BMP280;61956;52.540;13.382;2023-02-13T04:20:38;97085.50;;;7.52
73662;BMP280;61956;52.540;13.382;2023-02-13T04:23:09;97590.28;;;7.55
73662;BMP280;61956;52.540;13.382;2023-02-13T04:25:43;97881.38;;;7.56
73662;BMP280;61956;52.540;13.382;2023-02-13T04:28:17;98810.19;;;7.60
73662;BMP280;61956;52.540;13.382;2023-02-13T04:30:47;98786.44;;;7.63
73662;BMP280;61956;52.540;13.382;2023-02-13T04:33:17;98380.94;;;7.61
73662;BMP280;61956;52.540;13.382;2023-02-13T04:35:46;98197.03;;;7.61
73662;BMP280;61956;52.540;13.382;2023-02-13T04:38:15;97964.66;;;7.57
73662;BMP280;61956;52.540;13.382;2023-02-13T04:40:44;98097.75;;;7.58
73662;BMP280;61956;52.540;13.382;2023-02-13T04:43:14;98401.81;;;7.59
73662;BMP280;61956;52.540;13.382;2023-02-13T04:45:47;98597.63;;;7.61
73662;BMP280;61956;52.540;13.382;2023-02-13T04:48:16;98591.38;;;7.62
73662;BMP280;61956;52.540;13.382;2023-02-13T04:50:48;98234.94;;;7.60
73662;BMP280;61956;52.540;13.382;2023-02-13T04:53:18;98269.50;;;7.59
73662;BMP280;61956;52.540;13.382;2023-02-13T04:55:47;98334.75;;;7.59
73662;BMP280;61956;52.540;13.382;2023-02-13T04:58:19;98474.84;;;7.60
73662;BMP280;61956;52.540;13.382;2023-02-13T05:00:48;98263.56;;;7.58
73662;BMP280;61956;52.540;13.382;2023-02-13T05:03:17;98132.28;;;7.57
73662;BMP280;61956;52.540;13.382;2023-02-13T05:05:47;98255.84;;;7.58
73662;BMP280;61956;52.540;13.382;2023-02-13T05:08:17;98142.34;;;7.58
73662;BMP280;61956;52.540;13.382;2023-02-13T05:10:47;97878.78;;;7.56
73662;BMP280;61956;52.540;13.382;2023-02-13T05:13:19;97974.50;;;7.55
73662;BMP280;61956;52.540;13.382;2023-02-13T05:15:49;97639.53;;;7.53
73662;BMP280;61956;52.540;13.382;2023-02-13T05:18:18;97459.31;;;7.52
73662;BMP280;61956;52.540;13.382;2023-02-13T05:20:47;97496.47;;;7.51
73662;BMP280;61956;52.540;13.382;2023-02-13T05:23:38;97653.75;;;7.51
73662;BMP280;61956;52.540;13.382;2023-02-13T05:26:04;97672.56;;;7.51
73662;BMP280;61956;52.540;13.382;2023-02-13T05:28:36;97742.94;;;7.52
73662;BMP280;61956;52.540;13.382;2023-02-13T05:31:17;97663.28;;;7.50
73662;BMP280;61956;52.540;13.382;2023-02-13T05:33:47;97230.47;;;7.49
73662;BMP280;61956;52.540;13.382;2023-02-13T05:36:16;97830.91;;;7.50
73662;BMP280;61956;52.540;13.382;2023-02-13T05:38:45;99006.50;;;7.58
73662;BMP280;61956;52.540;13.382;2023-02-13T05:41:14;99266.84;;;7.60
73662;BMP280;61956;52.540;13.382;2023-02-13T05:43:46;99248.50;;;7.62
73662;BMP280;61956;52.540;13.382;2023-02-13T05:46:15;99157.44;;;7.61
73662;BMP280;61956;52.540;13.382;2023-02-13T05:48:44;99076.69;;;7.61
73662;BMP280;61956;52.540;13.382;2023-02-13T05:51:14;98935.81;;;7.59
73662;BMP280;61956;52.540;13.382;2023-02-13T05:53:43;98915.16;;;7.59
73662;BMP280;61956;52.540;13.382;2023-02-13T05:56:12;98891.16;;;7.59
73662;BMP280;61956;52.540;13.382;2023-02-13T05:58:42;99067.16;;;7.61
73662;BMP280;61956;52.540;13.382;2023-02-13T06:01:13;99275.88;;;7.63
73662;BMP280;61956;52.540;13.382;2023-02-13T06:03:42;99608.50;;;7.64
73662;BMP280;61956;52.540;13.382;2023-02-13T06:06:12;99856.84;;;7.66
73662;BMP280;61956;52.540;13.382;2023-02-13T06:08:41;100529.94;;;7.71
73662;BMP280;61956;52.540;13.382;2023-02-13T06:11:10;100364.72;;;7.71
73662;BMP280;61956;52.540;13.382;2023-02-13T06:13:40;100368.88;;;7.72
73662;BMP280;61956;52.540;13.382;2023-02-13T06:16:09;100580.34;;;7.73
73662;BMP280;61956;52.540;13.382;2023-02-13T06:18:42;100809.97;;;7.75
73662;BMP280;61956;52.540;13.382;2023-02-13T06:21:11;100826.03;;;7.77
73662;BMP280;61956;52.540;13.382;2023-02-13T06:23:41;100844.09;;;7.77
73662;BMP280;61956;52.540;13.382;2023-02-13T06:26:10;100546.59;;;7.75
73662;BMP280;61956;52.540;13.382;2023-02-13T06:28:39;100544.00;;;7.75
73662;BMP280;61956;52.540;13.382;2023-02-13T06:31:08;100696.13;;;7.76
73662;BMP280;61956;52.540;13.382;2023-02-13T06:33:40;100488.00;;;7.75
73662;BMP280;61956;52.540;13.382;2023-02-13T06:36:09;100344.38;;;7.74
73662;BMP280;61956;52.540;13.382;2023-02-13T06:38:38;100452.81;;;7.74
73662;BMP280;61956;52.540;13.382;2023-02-13T06:41:09;100449.25;;;7.75
73662;BMP280;61956;52.540;13.382;2023-02-13T06:43:38;100262.03;;;7.73
73662;BMP280;61956;52.540;13.382;2023-02-13T06:46:07;100536.03;;;7.76
73662;BMP280;61956;52.540;13.382;2023-02-13T06:48:37;100418.28;;;7.75
73662;BMP280;61956;52.540;13.382;2023-02-13T06:51:08;100364.06;;;7.75
73662;BMP280;61956;52.540;13.382;2023-02-13T06:53:38;100485.41;;;7.75
73662;BMP280;61956;52.540;13.382;2023-02-13T06:56:08;100410.53;;;7.75
73662;BMP280;61956;52.540;13.382;2023-02-13T06:58:38;100428.59;;;7.75
73662;BMP280;61956;52.540;13.382;2023-02-13T07:01:07;100548.94;;;7.76
73662;BMP280;61956;52.540;13.382;2023-02-13T07:03:36;100733.06;;;7.77
73662;BMP280;61956;52.540;13.382;2023-02-13T07:06:08;100908.47;;;7.78
73662;BMP280;61956;52.540;13.382;2023-02-13T07:08:37;100864.56;;;7.78
73662;BMP280;61956;52.540;13.382;2023-02-13T07:11:07;100892.97;;;7.78
73662;BMP280;61956;52.540;13.382;2023-02-13T07:13:36;101500.16;;;7.83
73662;BMP280;61956;52.540;13.382;2023-02-13T07:16:05;101734.03;;;7.86
73662;BMP280;61956;52.540;13.382;2023-02-13T07:18:34;101460.41;;;7.85
73662;BMP280;61956;52.540;13.382;2023-02-13T07:21:04;101697.88;;;7.86
73662;BMP280;61956;52.540;13.382;2023-02-13T07:23:36;102199.59;;;7.90
73662;BMP280;61956;52.540;13.382;2023-02-13T07:26:05;102139.97;;;7.91
73662;BMP280;61956;52.540;13.382;2023-02-13T07:28:35;101905.84;;;7.90
73662;BMP280;61956;52.540;13.382;2023-02-13T07:31:05;101978.97;;;7.91
73662;BMP280;61956;52.540;13.382;2023-02-13T07:33:37;101705.47;;;7.88
73662;BMP280;61956;52.540;13.382;2023-02-13T07:36:07;101815.41;;;7.90
73662;BMP280;61956;52.540;13.382;2023-02-13T07:38:39;101710.44;;;7.89
73662;BMP280;61956;52.540;13.382;2023-02-13T07:41:08;101830.91;;;7.90
73662;BMP280;61956;52.540;13.382;2023-02-13T07:43:37;102269.84;;;7.93
73662;BMP280;61956;52.540;13.382;2023-02-13T07:46:07;102342.81;;;7.95
73662;BMP280;61956;52.540;13.382;2023-02-13T07:48:36;102359.34;;;7.94
73662;BMP280;61956;52.540;13.382;2023-02-13T07:51:05;102500.31;;;7.97
73662;BMP280;61956;52.540;13.382;2023-02-13T07:53:35;102096.53;;;7.95
73662;BMP280;61956;52.540;13.382;2023-02-13T07:56:07;102075.06;;;7.94
73662;BMP280;61956;52.540;13.382;2023-02-13T07:58:40;102216.19;;;7.95
73662;BMP280;61956;52.540;13.382;2023-02-13T08:01:11;102656.88;;;7.99
73662;BMP280;61956;52.540;13.382;2023-02-13T08:03:42;102740.38;;;8.00
73662;BMP280;61956;52.540;13.382;2023-02-13T08:06:16;102479.47;;;7.98
73662;BMP280;61956;52.540;13.382;2023-02-13T08:08:51;102726.50;;;8.01
73662;BMP280;61956;52.540;13.382;2023-02-13T08:11:41;102529.22;;;8.00
73662;BMP280;61956;52.540;13.382;2023-02-13T08:14:20;102891.00;;;8.02
73662;BMP280;61956;52.540;13.382;2023-02-13T08:16:52;103007.97;;;8.04
73662;BMP280;61956;52.540;13.382;2023-02-13T08:19:22;102643.63;;;8.02
73662;BMP280;61956;52.540;13.382;2023-02-13T08:21:51;102378.53;;;8.00
73662;BMP280;61956;52.540;13.382;2023-02-13T08:24:22;102971.78;;;8.04
73662;BMP280;61956;52.540;13.382;2023-02-13T08:26:55;103174.13;;;8.06
73662;BMP280;61956;52.540;13.382;2023-02-13T08:29:24;103397.13;;;8.08
73662;BMP280;61956;52.540;13.382;2023-02-13T08:31:53;102947.41;;;8.06
73662;BMP280;61956;52.540;13.382;2023-02-13T08:34:22;103658.03;;;8.11
73662;BMP280;61956;52.540;13.382;2023-02-13T08:36:51;103702.72;;;8.13
73662;BMP280;61956;52.540;13.382;2023-02-13T08:39:23;104240.34;;;8.18
73662;BMP280;61956;52.540;13.382;2023-02-13T08:41:52;104692.06;;;8.20
73662;BMP280;61956;52.540;13.382;2023-02-13T08:44:21;104847.13;;;8.23
73662;BMP280;61956;52.540;13.382;2023-02-13T08:46:50;104872.91;;;8.25
73662;BMP280;61956;52.540;13.382;2023-02-13T08:49:19;104297.88;;;8.21
73662;BMP280;61956;52.540;13.382;2023-02-13T08:51:49;104221.88;;;8.22
73662;BMP280;61956;52.540;13.382;2023-02-13T08:54:18;103961.56;;;8.21
73662;BMP280;61956;52.540;13.382;2023-02-13T08:56:50;104271.03;;;8.22
73662;BMP280;61956;52.540;13.382;2023-02-13T08:59:19;105144.34;;;8.29
73662;BMP280;61956;52.540;13.382;2023-02-13T09:01:48;104617.44;;;8.27
73662;BMP280;61956;52.540;13.382;2023-02-13T09:04:18;103776.94;;;8.22
73662;BMP280;61956;52.540;13.382;2023-02-13T09:06:47;103455.66;;;8.19
73662;BMP280;61956;52.540;13.382;2023-02-13T09:09:16;103625.28;;;8.21
73662;BMP280;61956;52.540;13.382;2023-02-13T09:11:45;102495.13;;;8.13
73662;BMP280;61956;52.540;13.382;2023-02-13T09:14:18;102747.38;;;8.16
73662;BMP280;61956;52.540;13.382;2023-02-13T09:16:47;102157.81;;;8.09
73662;BMP280;61956;52.540;13.382;2023-02-13T09:19:16;102793.25;;;8.14
73662;BMP280;61956;52.540;13.382;2023-02-13T09:21:45;102491.91;;;8.11
73662;BMP280;61956;52.540;13.382;2023-02-13T09:24:15;102850.97;;;8.14
73662;BMP280;61956;52.540;13.382;2023-02-13T09:26:44;102466.88;;;8.12
73662;BMP280;61956;52.540;13.382;2023-02-13T09:29:13;102348.91;;;8.11
73662;BMP280;61956;52.540;13.382;2023-02-13T09:31:45;101283.25;;;8.03
73662;BMP280;61956;52.540;13.382;2023-02-13T09:34:16;100655.28;;;7.98
73662;BMP280;61956;52.540;13.382;2023-02-13T09:36:50;100137.84;;;7.93
73662;BMP280;61956;52.540;13.382;2023-02-13T09:39:19;99996.25;;;7.90
73662;BMP280;61956;52.540;13.382;2023-02-13T09:41:49;100091.56;;;7.91
73662;BMP280;61956;52.540;13.382;2023-02-13T09:44:25;99975.03;;;7.88
73662;BMP280;61956;52.540;13.382;2023-02-13T09:47:19;100305.53;;;7.88
73662;BMP280;61956;52.540;13.382;2023-02-13T09:49:59;99453.22;;;7.84
73662;BMP280;61956;52.540;13.382;2023-02-13T09:52:35;100068.19;;;7.86
73662;BMP280;61956;52.540;13.382;2023-02-13T09:55:13;100180.00;;;7.87
73662;BMP280;61956;52.540;13.382;2023-02-13T09:57:52;99456.25;;;7.81
73662;BMP280;61956;52.540;13.382;2023-02-13T10:00:31;98419.59;;;7.71
73662;BMP280;61956;52.540;13.382;2023-02-13T10:03:18;98397.94;;;7.72
73662;BMP280;61956;52.540;13.382;2023-02-13T10:06:05;99724.41;;;7.77
73662;BMP280;61956;52.540;13.382;2023-02-13T10:08:59;101293.72;;;7.89
73662;BMP280;61956;52.540;13.382;2023-02-13T10:11:49;102294.50;;;7.96
73662;BMP280;61956;52.540;13.382;2023-02-13T10:14:43;101626.44;;;7.93
73662;BMP280;61956;52.540;13.382;2023-02-13T10:17:20;100475.59;;;7.84
73662;BMP280;61956;52.540;13.382;2023-02-13T10:20:00;99529.78;;;7.78
73662;BMP280;61956;52.540;13.382;2023-02-13T10:22:35;101048.72;;;7.86
73662;BMP280;61956;52.540;13.382;2023-02-13T10:25:15;102282.59;;;7.95
73662;BMP280;61956;52.540;13.382;2023-02-13T10:27:51;102550.06;;;7.99
73662;BMP280;61956;52.540;13.382;2023-02-13T10:30:25;103246.66;;;8.04
73662;BMP280;61956;52.540;13.382;2023-02-13T10:33:00;103663.50;;;8.08
73662;BMP280;61956;52.540;13.382;2023-02-13T10:35:52;103885.66;;;8.11
73662;BMP280;61956;52.540;13.382;2023-02-13T10:38:30;104919.91;;;8.19
73662;BMP280;61956;52.540;13.382;2023-02-13T10:41:12;105012.84;;;8.22
73662;BMP280;61956;52.540;13.382;2023-02-13T10:46:58;106191.81;;;8.32
73662;BMP280;61956;52.540;13.382;2023-02-13T10:49:54;105686.09;;;8.32
73662;BMP280;61956;52.540;13.382;2023-02-13T10:52:41;106486.75;;;8.38
73662;BMP280;61956;52.540;13.382;2023-02-13T10:55:44;107890.53;;;8.50
73662;BMP280;61956;52.540;13.382;2023-02-13T10:58:35;106955.22;;;8.47
73662;BMP280;61956;52.540;13.382;2023-02-13T11:01:18;106380.25;;;8.46
73662;BMP280;61956;52.540;13.382;2023-02-13T11:04:05;104654.75;;;8.36
73662;BMP280;61956;52.540;13.382;2023-02-13T11:06:41;103458.38;;;8.27
73662;BMP280;61956;52.540;13.382;2023-02-13T11:09:14;103156.97;;;8.23
73662;BMP280;61956;52.540;13.382;2023-02-13T11:11:44;104188.59;;;8.29
73662;BMP280;61956;52.540;13.382;2023-02-13T11:14:16;103782.50;;;8.27
73662;BMP280;61956;52.540;13.382;2023-02-13T11:16:54;104081.66;;;8.28
73662;BMP280;61956;52.540;13.382;2023-02-13T11:19:31;105167.25;;;8.36
73662;BMP280;61956;52.540;13.382;2023-02-13T11:22:03;105206.00;;;8.37
73662;BMP280;61956;52.540;13.382;2023-02-13T11:24:39;105039.50;;;8.37
73662;BMP280;61956;52.540;13.382;2023-02-13T11:27:11;104453.94;;;8.33
73662;BMP280;61956;52.540;13.382;2023-02-13T11:29:51;104618.63;;;8.34
73662;BMP280;61956;52.540;13.382;2023-02-13T11:32:24;105065.25;;;8.38
73662;BMP280;61956;52.540;13.382;2023-02-13T11:34:55;105495.66;;;8.42
73662;BMP280;61956;52.540;13.382;2023-02-13T11:37:31;105853.63;;;8.45
73662;BMP280;61956;52.540;13.382;2023-02-13T11:40:27;105979.53;;;8.48
73662;BMP280;61956;52.540;13.382;2023-02-13T11:42:58;105442.84;;;8.44
73662;BMP280;61956;52.540;13.382;2023-02-13T11:45:27;104740.63;;;8.41
73662;BMP280;61956;52.540;13.382;2023-02-13T11:47:56;104216.47;;;8.37
73662;BMP280;61956;52.540;13.382;2023-02-13T11:50:28;103968.28;;;8.34
73662;BMP280;61956;52.540;13.382;2023-02-13T11:53:02;104966.78;;;8.40
73662;BMP280;61956;52.540;13.382;2023-02-13T11:55:38;104877.72;;;8.42
73662;BMP280;61956;52.540;13.382;2023-02-13T11:58:23;104723.38;;;8.41
73662;BMP280;61956;52.540;13.382;2023-02-13T12:01:08;104947.63;;;8.42
73662;BMP280;61956;52.540;13.382;2023-02-13T12:04:13;105179.50;;;8.46
73662;BMP280;61956;52.540;13.382;2023-02-13T12:06:58;105739.44;;;8.50
73662;BMP280;61956;52.540;13.382;2023-02-13T12:09:29;105607.34;;;8.50
73662;BMP280;61956;52.540;13.382;2023-02-13T12:12:03;105554.75;;;8.49
73662;BMP280;61956;52.540;13.382;2023-02-13T12:14:39;105877.38;;;8.53
73662;BMP280;61956;52.540;13.382;2023-02-13T12:17:14;106616.28;;;8.59
73662;BMP280;61956;52.540;13.382;2023-02-13T12:19:49;106742.25;;;8.61
73662;BMP280;61956;52.540;13.382;2023-02-13T12:22:31;106724.94;;;8.62
73662;BMP280;61956;52.540;13.382;2023-02-13T12:25:43;106600.53;;;8.63
73662;BMP280;61956;52.540;13.382;2023-02-13T12:28:27;106669.56;;;8.64
73662;BMP280;61956;52.540;13.382;2023-02-13T12:31:22;106726.53;;;8.66
73662;BMP280;61956;52.540;13.382;2023-02-13T12:34:34;106583.94;;;8.67
73662;BMP280;61956;52.540;13.382;2023-02-13T12:37:38;106330.16;;;8.64
73662;BMP280;61956;52.540;13.382;2023-02-13T12:40:29;105802.66;;;8.62
73662;BMP280;61956;52.540;13.382;2023-02-13T12:46:51;104047.22;;;8.49
73662;BMP280;61956;52.540;13.382;2023-02-13T12:49:45;104126.78;;;8.47
73662;BMP280;61956;52.540;13.382;2023-02-13T12:52:48;104059.47;;;8.47
73662;BMP280;61956;52.540;13.382;2023-02-13T12:55:49;105133.22;;;8.55
73662;BMP280;61956;52.540;13.382;2023-02-13T12:58:43;105301.44;;;8.56
73662;BMP280;61956;52.540;13.382;2023-02-13T13:01:30;105217.72;;;8.56
73662;BMP280;61956;52.540;13.382;2023-02-13T13:04:19;104575.00;;;8.52
73662;BMP280;61956;52.540;13.382;2023-02-13T13:07:18;105156.44;;;8.56
73662;BMP280;61956;52.540;13.382;2023-02-13T13:10:19;105536.91;;;8.59
73662;BMP280;61956;52.540;13.382;2023-02-13T13:13:10;104724.13;;;8.55
73662;BMP280;61956;52.540;13.382;2023-02-13T13:15:55;105099.47;;;8.56
73662;BMP280;61956;52.540;13.382;2023-02-13T13:18:43;105232.28;;;8.58
73662;BMP280;61956;52.540;13.382;2023-02-13T13:21:32;105824.22;;;8.62
73662;BMP280;61956;52.540;13.382;2023-02-13T13:24:22;105642.09;;;8.62
73662;BMP280;61956;52.540;13.382;2023-02-13T13:27:01;104584.31;;;8.55
73662;BMP280;61956;52.540;13.382;2023-02-13T13:29:39;103749.59;;;8.49
73662;BMP280;61956;52.540;13.382;2023-02-13T13:32:15;104378.28;;;8.52
73662;BMP280;61956;52.540;13.382;2023-02-13T13:34:47;104501.59;;;8.53
73662;BMP280;61956;52.540;13.382;2023-02-13T13:37:26;104341.09;;;8.53
73662;BMP280;61956;52.540;13.382;2023-02-13T13:40:22;104326.50;;;8.52
73662;BMP280;61956;52.540;13.382;2023-02-13T13:43:03;104792.25;;;8.55
73662;BMP280;61956;52.540;13.382;2023-02-13T13:45:47;104254.97;;;8.51
73662;BMP280;61956;52.540;13.382;2023-02-13T13:48:49;104596.44;;;8.54
73662;BMP280;61956;52.540;13.382;2023-02-13T13:51:36;104373.09;;;8.52
73662;BMP280;61956;52.540;13.382;2023-02-13T13:54:33;104542.09;;;8.54
73662;BMP280;61956;52.540;13.382;2023-02-13T13:57:07;103570.38;;;8.47
73662;BMP280;61956;52.540;13.382;2023-02-13T14:03:23;103768.81;;;8.46
73662;BMP280;61956;52.540;13.382;2023-02-13T14:06:03;103942.06;;;8.48
73662;BMP280;61956;52.540;13.382;2023-02-13T14:11:40;103667.06;;;8.46
73662;BMP280;61956;52.540;13.382;2023-02-13T14:17:50;103392.91;;;8.44
73662;BMP280;61956;52.540;13.382;2023-02-13T14:20:30;104208.50;;;8.49
73662;BMP280;61956;52.540;13.382;2023-02-13T14:23:31;103297.31;;;8.43
73662;BMP280;61956;52.540;13.382;2023-02-13T14:26:34;103006.09;;;8.40
73662;BMP280;61956;52.540;13.382;2023-02-13T14:29:26;103225.03;;;8.41
73662;BMP280;61956;52.540;13.382;2023-02-13T14:32:16;103631.78;;;8.45
73662;BMP280;61956;52.540;13.382;2023-02-13T14:34:55;103969.72;;;8.47
73662;BMP280;61956;52.540;13.382;2023-02-13T14:37:31;103203.50;;;8.41
73662;BMP280;61956;52.540;13.382;2023-02-13T14:40:41;103098.41;;;8.40
73662;BMP280;61956;52.540;13.382;2023-02-13T14:43:26;102934.81;;;8.38
73662;BMP280;61956;52.540;13.382;2023-02-13T14:46:06;102846.03;;;8.37
73662;BMP280;61956;52.540;13.382;2023-02-13T14:48:44;102894.38;;;8.37
73662;BMP280;61956;52.540;13.382;2023-02-13T14:51:21;102737.56;;;8.36
73662;BMP280;61956;52.540;13.382;2023-02-13T14:54:01;102476.53;;;8.34
73662;BMP280;61956;52.540;13.382;2023-02-13T14:56:36;102269.97;;;8.31
73662;BMP280;61956;52.540;13.382;2023-02-13T14:59:14;101110.16;;;8.23
73662;BMP280;61956;52.540;13.382;2023-02-13T15:01:47;100872.78;;;8.20
73662;BMP280;61956;52.540;13.382;2023-02-13T15:04:25;101386.13;;;8.21
73662;BMP280;61956;52.540;13.382;2023-02-13T15:07:00;101465.25;;;8.22
73662;BMP280;61956;52.540;13.382;2023-02-13T15:09:36;101699.47;;;8.23
73662;BMP280;61956;52.540;13.382;2023-02-13T15:12:26;101042.75;;;8.18
73662;BMP280;61956;52.540;13.382;2023-02-13T15:14:59;101359.44;;;8.21